Updated23/05/2018 07:50 
 

GeoURL
free counters
Scottish Weather Network UK Weather Network Cumulus Top Weather Sites

Peebles Weather - Nearby METAR Reports

Raw Data, Raw Data Expanded

Ignore low humidity and Dew Point values. Something wrong with the sensor.
Daytime temperatures are in direct sunlight so may be higher than official air temperature values.

All times are in BST (UTC+1) unless specified.

2018/05/23 06:20 EGPH 230620Z 08009KT 9999 BKN013 09/07 Q1028
8.3°C 0.0 mm 0.0 mm 0.0 mm 2.8 mph 4.5 mph 1023.9 hPa 66% X-Ray Solar Flare Level
Planetary K-Index
Planetary K-Index History
Station Warn Rain Snow Flood Wind Ltng Heat Cold Glob Moon Temp Rain 1h Rain Wed Rain 24h Wind 10m Gust Pressure Hum Proton Levels

0.259 m Waxing Gibbous Cool F1-ESE F:71 A:6 Kp:3 SSN:12

METAR Reports

 

EGPH - Edinburgh Airpor, United Kingdom
Distance from station: NNW 22mi, 36km
Updated: 23/05/2018 07:20
Mostly cloudy
Mostly cloudy
 Wind from E
Wind: E 10 mph , 17 km/h
Temperature: 9°C
Wind Chill: 7°C
Dew Point: 7°C
Humidity: 87%
Barometer: 1028 hPa
Clouds: Mostly cloudy
Visibility: 6 miles , 10 km
Cloud details: Mostly cloudy 396 m
2018/05/23 06:20 EGPH 230620Z 08009KT 9999 BKN013 09/07 Q1028
EGOM - Spadeadam, United Kingdom
Distance from station: SSE 49mi, 79km
Updated: 23/05/2018 06:50
Overcast
Overcast
 Wind from E
Wind: E 12 mph , 19 km/h
Temperature: 7°C
Wind Chill: 4°C
Dew Point: 6°C
Humidity: 93%
Barometer: 1026 hPa
Clouds: Overcast
Visibility: 6 miles , 10 km
Cloud details: Overcast 91 m
2018/05/23 05:50 EGOM 230550Z AUTO 08010KT 9999 OVC003/// 07/06 Q1026
 
EGNC - Carlisle, United Kingdom
Distance from station: SSE 51mi, 82km
Updated: 22/05/2018 17:50
NOT Current
Few Clouds
Few Clouds
 Wind from NE
Wind: NE 10 mph , 17 km/h
Temperature: 15°C
Dew Point: 8°C
Humidity: 63%
Barometer: 1023 hPa
Clouds: Few Clouds
Visibility: 6 miles , 10 km
Cloud details: Few Clouds 610 m
2018/05/22 16:50 EGNC 221650Z 05009KT 350V090 9999 FEW020 15/08 Q1023
EGPF - Glasgow Airport, United Kingdom
Distance from station: WNW 51mi, 82km
Updated: 01/01/1970 01:00
NOT Current
unable to load EGPF data RC=404 Not Found
unable to load EGPF data RC=404 Not Found
 
 
EGQL - Leuchars Raf, United Kingdom
Distance from station: NNE 53mi, 85km
Updated: 23/05/2018 06:50
Overcast
Overcast
 Wind from E
Wind: E 6 mph , 9 km/h
Temperature: 10°C
Wind Chill: 9°C
Dew Point: 6°C
Humidity: 76%
Barometer: 1028 hPa
Clouds: Overcast
Visibility: 6 miles , 10 km
Cloud details: Overcast 518 m
2018/05/23 05:50 EGQL 230550Z 10005KT 9999 OVC017 10/06 Q1028 WHT
EGPK - Prestwick(Civ/Na, United Kingdom
Distance from station: W 55mi, 89km
Updated: 23/05/2018 07:20
Partly cloudy
Partly cloudy
 Wind from ENE
Wind: ENE 3 mph , 6 km/h
Temperature: 9°C
Dew Point: 7°C
Humidity: 87%
Barometer: 1027 hPa
Clouds: Partly cloudy
Visibility: 6 miles , 10 km
Cloud details: Partly cloudy 427 m
2018/05/23 06:20 EGPK 230620Z 07003KT 9999 SCT014 09/07 Q1027
 
EGPN - Dundee/Riverside, United Kingdom
Distance from station: N 56mi, 90km
Updated: 23/05/2018 07:20
Mostly cloudy
Mostly cloudy
 Wind from E
Wind: E 5 mph , 7 km/h
Temperature: 10°C
Wind Chill: 9°C
Dew Point: 7°C
Humidity: 82%
Barometer: 1028 hPa
Clouds: Mostly cloudy
Visibility: 6 miles , 10 km
Cloud details: Mostly cloudy 549 m
2018/05/23 06:20 EGPN 230620Z 10004KT 9999 BKN018 10/07 Q1028
EGNT - Newcastle, United Kingdom
Distance from station: SE 72mi, 116km
Updated: 23/05/2018 07:20
Mostly cloudy
Mostly cloudy
 Wind from NE
Wind: NE 8 mph , 13 km/h
Temperature: 9°C
Wind Chill: 7°C
Dew Point: 7°C
Humidity: 87%
Barometer: 1027 hPa
Clouds: Mostly cloudy
Visibility: 6 miles , 10 km
Cloud details: Mostly cloudy 305 m
2018/05/23 06:20 EGNT 230620Z 04007KT 360V090 9999 BKN010 09/07 Q1027
 
EGNV - Tees-Side, United Kingdom
Distance from station: SE 104mi, 168km
Updated: 23/05/2018 07:20
Mostly cloudy
Mostly cloudy
 Wind from N
Wind: N 12 mph , 19 km/h
Temperature: 10°C
Wind Chill: 7°C
Dew Point: 7°C
Humidity: 82%
Barometer: 1027 hPa
Clouds: Mostly cloudy
Visibility: 6 miles , 10 km
Cloud details: Mostly cloudy 518 m
2018/05/23 06:20 EGNV 230620Z 36010KT 9999 BKN017 10/07 Q1027
EGPD - Aberdeen/Dyce, United Kingdom
Distance from station: NNE 114mi, 183km
Updated: 23/05/2018 07:20
Overcast
Overcast
 Wind from varies
Wind: varies 3 mph , 6 km/h
Temperature: 8°C
Dew Point: 6°C
Humidity: 87%
Barometer: 1028 hPa
Clouds: Overcast
Visibility: 6 miles , 10 km
Cloud details: Overcast 366 m
2018/05/23 06:20 EGPD 230620Z AUTO VRB03KT 9999 OVC012 08/06 Q1028
 
EGNS - Isle Of Man/Rona, United Kingdom
Distance from station: SSW 122mi, 197km
Updated: 23/05/2018 07:20
Clear
Clear
 Wind from ENE
Wind: ENE 7 mph , 11 km/h
Temperature: 12°C
Dew Point: 8°C
Humidity: 77%
Barometer: 1026 hPa
Summary: Clear
Visibility: greater than 7 miles , 10 km
2018/05/23 06:20 EGNS 230620Z 06006KT 020V100 CAVOK 12/08 Q1026 NOSIG
EGAC - Belfast Harbour, United Kingdom
Distance from station: WSW 128mi, 206km
Updated: 23/05/2018 07:20
Partly cloudy
Partly cloudy
 Wind from varies
Wind: varies 3 mph , 6 km/h
Temperature: 10°C
Dew Point: 9°C
Humidity: 94%
Barometer: 1026 hPa
Clouds: Partly cloudy
Visibility: 6 miles , 10 km
Cloud details: Partly cloudy 213 m
2018/05/23 06:20 EGAC 230620Z VRB03KT 9999 SCT007 10/09 Q1026
 
EGPE - Inverness/Dalcro, United Kingdom
Distance from station: NNW 134mi, 215km
Updated: 23/05/2018 07:20
Partly cloudy
Partly cloudy
 Wind from varies
Wind: varies 2 mph , 4 km/h
Temperature: 9°C
Dew Point: 9°C
Humidity: 100%
Barometer: 1028 hPa
Clouds: Partly cloudy
Visibility: 6 miles , 10 km
Cloud details: Few Clouds 366 m
Partly cloudy 671 m
2018/05/23 06:20 EGPE 230620Z VRB02KT 9999 FEW012 SCT022 09/09 Q1028
XHTML 1.1 | CSS